sensor_id;sensor_type;location;lat;lon;timestamp;P1;durP1;ratioP1;P2;durP2;ratioP2
1336;SDS011;662;48.814;9.318;2023-07-24T00:01:15;8.20;;;5.73;;
1336;SDS011;662;48.814;9.318;2023-07-24T00:03:43;6.83;;;5.90;;
1336;SDS011;662;48.814;9.318;2023-07-24T00:06:09;7.70;;;6.10;;
1336;SDS011;662;48.814;9.318;2023-07-24T00:08:34;7.30;;;5.67;;
1336;SDS011;662;48.814;9.318;2023-07-24T00:11:00;7.83;;;6.13;;
1336;SDS011;662;48.814;9.318;2023-07-24T00:13:27;7.00;;;5.37;;
1336;SDS011;662;48.814;9.318;2023-07-24T00:15:53;7.63;;;5.27;;
1336;SDS011;662;48.814;9.318;2023-07-24T00:18:19;7.63;;;5.60;;
1336;SDS011;662;48.814;9.318;2023-07-24T00:20:44;9.13;;;6.27;;
1336;SDS011;662;48.814;9.318;2023-07-24T00:23:10;7.80;;;5.53;;
1336;SDS011;662;48.814;9.318;2023-07-24T00:25:36;8.43;;;5.87;;
1336;SDS011;662;48.814;9.318;2023-07-24T00:28:02;7.67;;;5.67;;
1336;SDS011;662;48.814;9.318;2023-07-24T00:30:28;7.90;;;5.73;;
1336;SDS011;662;48.814;9.318;2023-07-24T00:32:53;7.90;;;5.63;;
1336;SDS011;662;48.814;9.318;2023-07-24T00:35:19;7.80;;;6.00;;
1336;SDS011;662;48.814;9.318;2023-07-24T00:37:44;7.40;;;6.00;;
1336;SDS011;662;48.814;9.318;2023-07-24T00:40:10;7.80;;;6.00;;
1336;SDS011;662;48.814;9.318;2023-07-24T00:42:36;9.17;;;6.50;;
1336;SDS011;662;48.814;9.318;2023-07-24T00:45:02;8.37;;;5.70;;
1336;SDS011;662;48.814;9.318;2023-07-24T00:47:27;8.30;;;6.30;;
1336;SDS011;662;48.814;9.318;2023-07-24T00:49:53;7.13;;;5.47;;
1336;SDS011;662;48.814;9.318;2023-07-24T00:52:20;7.97;;;6.30;;
1336;SDS011;662;48.814;9.318;2023-07-24T00:54:46;9.47;;;5.67;;
1336;SDS011;662;48.814;9.318;2023-07-24T00:57:12;7.23;;;5.87;;
1336;SDS011;662;48.814;9.318;2023-07-24T00:59:38;8.03;;;5.40;;
1336;SDS011;662;48.814;9.318;2023-07-24T01:02:07;6.67;;;5.43;;
1336;SDS011;662;48.814;9.318;2023-07-24T01:04:32;9.60;;;6.60;;
1336;SDS011;662;48.814;9.318;2023-07-24T01:06:58;9.07;;;6.10;;
1336;SDS011;662;48.814;9.318;2023-07-24T01:09:25;8.23;;;5.97;;
1336;SDS011;662;48.814;9.318;2023-07-24T01:11:52;7.40;;;5.67;;
1336;SDS011;662;48.814;9.318;2023-07-24T01:14:24;10.70;;;5.70;;
1336;SDS011;662;48.814;9.318;2023-07-24T01:17:08;7.13;;;5.53;;
1336;SDS011;662;48.814;9.318;2023-07-24T01:19:49;8.40;;;5.77;;
1336;SDS011;662;48.814;9.318;2023-07-24T01:27:28;7.90;;;5.73;;
1336;SDS011;662;48.814;9.318;2023-07-24T01:29:54;7.30;;;5.37;;
1336;SDS011;662;48.814;9.318;2023-07-24T01:32:19;7.43;;;5.60;;
1336;SDS011;662;48.814;9.318;2023-07-24T01:34:46;8.13;;;5.53;;
1336;SDS011;662;48.814;9.318;2023-07-24T01:37:12;8.27;;;6.13;;
1336;SDS011;662;48.814;9.318;2023-07-24T01:39:41;7.80;;;5.60;;
1336;SDS011;662;48.814;9.318;2023-07-24T01:42:09;7.80;;;6.23;;
1336;SDS011;662;48.814;9.318;2023-07-24T01:44:34;8.70;;;6.50;;
1336;SDS011;662;48.814;9.318;2023-07-24T01:47:00;6.87;;;5.47;;
1336;SDS011;662;48.814;9.318;2023-07-24T01:49:26;7.37;;;5.30;;
1336;SDS011;662;48.814;9.318;2023-07-24T01:51:51;7.97;;;5.77;;
1336;SDS011;662;48.814;9.318;2023-07-24T01:54:17;8.07;;;6.27;;
1336;SDS011;662;48.814;9.318;2023-07-24T01:56:43;6.60;;;5.47;;
1336;SDS011;662;48.814;9.318;2023-07-24T01:59:09;8.57;;;6.00;;
1336;SDS011;662;48.814;9.318;2023-07-24T02:01:34;7.30;;;5.80;;
1336;SDS011;662;48.814;9.318;2023-07-24T02:04:00;7.50;;;5.50;;
1336;SDS011;662;48.814;9.318;2023-07-24T02:06:26;8.07;;;5.60;;
1336;SDS011;662;48.814;9.318;2023-07-24T02:08:52;7.43;;;5.23;;
1336;SDS011;662;48.814;9.318;2023-07-24T02:11:17;6.73;;;5.50;;
1336;SDS011;662;48.814;9.318;2023-07-24T02:13:44;7.93;;;5.70;;
1336;SDS011;662;48.814;9.318;2023-07-24T02:16:10;6.50;;;5.00;;
1336;SDS011;662;48.814;9.318;2023-07-24T02:18:38;7.07;;;5.63;;
1336;SDS011;662;48.814;9.318;2023-07-24T02:21:05;7.43;;;5.90;;
1336;SDS011;662;48.814;9.318;2023-07-24T02:23:31;7.83;;;5.77;;
1336;SDS011;662;48.814;9.318;2023-07-24T02:25:57;5.90;;;4.70;;
1336;SDS011;662;48.814;9.318;2023-07-24T02:28:22;7.43;;;5.40;;
1336;SDS011;662;48.814;9.318;2023-07-24T02:30:48;8.47;;;5.70;;
1336;SDS011;662;48.814;9.318;2023-07-24T02:33:14;8.00;;;6.30;;
1336;SDS011;662;48.814;9.318;2023-07-24T02:35:40;6.03;;;4.80;;
1336;SDS011;662;48.814;9.318;2023-07-24T02:38:06;8.50;;;5.37;;
1336;SDS011;662;48.814;9.318;2023-07-24T02:40:32;7.70;;;5.47;;
1336;SDS011;662;48.814;9.318;2023-07-24T02:42:58;6.53;;;5.47;;
1336;SDS011;662;48.814;9.318;2023-07-24T02:45:24;6.47;;;4.43;;
1336;SDS011;662;48.814;9.318;2023-07-24T02:47:50;8.57;;;5.73;;
1336;SDS011;662;48.814;9.318;2023-07-24T02:50:15;6.40;;;5.10;;
1336;SDS011;662;48.814;9.318;2023-07-24T02:52:41;7.97;;;5.80;;
1336;SDS011;662;48.814;9.318;2023-07-24T02:55:07;6.13;;;5.17;;
1336;SDS011;662;48.814;9.318;2023-07-24T02:57:32;7.27;;;6.10;;
1336;SDS011;662;48.814;9.318;2023-07-24T02:59:58;5.80;;;4.80;;
1336;SDS011;662;48.814;9.318;2023-07-24T03:02:24;6.23;;;4.93;;
1336;SDS011;662;48.814;9.318;2023-07-24T03:04:50;6.80;;;4.93;;
1336;SDS011;662;48.814;9.318;2023-07-24T03:07:15;6.53;;;5.10;;
1336;SDS011;662;48.814;9.318;2023-07-24T03:09:41;8.10;;;5.60;;
1336;SDS011;662;48.814;9.318;2023-07-24T03:12:07;7.23;;;5.57;;
1336;SDS011;662;48.814;9.318;2023-07-24T03:14:32;6.23;;;5.60;;
1336;SDS011;662;48.814;9.318;2023-07-24T03:16:58;6.70;;;5.40;;
1336;SDS011;662;48.814;9.318;2023-07-24T03:19:24;8.63;;;5.70;;
1336;SDS011;662;48.814;9.318;2023-07-24T03:21:49;7.67;;;5.50;;
1336;SDS011;662;48.814;9.318;2023-07-24T03:24:16;9.87;;;6.10;;
1336;SDS011;662;48.814;9.318;2023-07-24T03:26:41;7.70;;;5.60;;
1336;SDS011;662;48.814;9.318;2023-07-24T03:29:07;7.90;;;5.23;;
1336;SDS011;662;48.814;9.318;2023-07-24T03:31:33;7.47;;;5.90;;
1336;SDS011;662;48.814;9.318;2023-07-24T03:33:58;6.47;;;5.53;;
1336;SDS011;662;48.814;9.318;2023-07-24T03:36:24;8.20;;;5.60;;
1336;SDS011;662;48.814;9.318;2023-07-24T03:38:49;7.20;;;6.30;;
1336;SDS011;662;48.814;9.318;2023-07-24T03:41:15;8.00;;;5.77;;
1336;SDS011;662;48.814;9.318;2023-07-24T03:43:41;7.27;;;5.60;;
1336;SDS011;662;48.814;9.318;2023-07-24T03:46:07;9.03;;;5.90;;
1336;SDS011;662;48.814;9.318;2023-07-24T03:48:33;7.20;;;5.60;;
1336;SDS011;662;48.814;9.318;2023-07-24T03:51:00;7.53;;;5.57;;
1336;SDS011;662;48.814;9.318;2023-07-24T03:53:26;7.20;;;5.70;;
1336;SDS011;662;48.814;9.318;2023-07-24T03:55:52;7.47;;;5.33;;
1336;SDS011;662;48.814;9.318;2023-07-24T03:58:18;6.80;;;5.77;;
1336;SDS011;662;48.814;9.318;2023-07-24T04:00:44;6.40;;;4.97;;
1336;SDS011;662;48.814;9.318;2023-07-24T04:03:10;7.47;;;5.70;;
1336;SDS011;662;48.814;9.318;2023-07-24T04:05:35;7.93;;;5.27;;
1336;SDS011;662;48.814;9.318;2023-07-24T04:08:01;8.50;;;6.17;;
1336;SDS011;662;48.814;9.318;2023-07-24T04:10:28;8.47;;;5.33;;
1336;SDS011;662;48.814;9.318;2023-07-24T04:12:54;8.27;;;5.53;;
1336;SDS011;662;48.814;9.318;2023-07-24T04:15:19;8.73;;;6.20;;
1336;SDS011;662;48.814;9.318;2023-07-24T04:17:45;7.87;;;5.73;;
1336;SDS011;662;48.814;9.318;2023-07-24T04:20:11;8.20;;;6.27;;
1336;SDS011;662;48.814;9.318;2023-07-24T04:22:36;7.10;;;5.60;;
1336;SDS011;662;48.814;9.318;2023-07-24T04:25:02;8.63;;;6.17;;
1336;SDS011;662;48.814;9.318;2023-07-24T04:27:28;9.30;;;6.00;;
1336;SDS011;662;48.814;9.318;2023-07-24T04:29:54;7.57;;;5.50;;
1336;SDS011;662;48.814;9.318;2023-07-24T04:32:19;7.50;;;5.47;;
1336;SDS011;662;48.814;9.318;2023-07-24T04:34:45;7.20;;;5.90;;
1336;SDS011;662;48.814;9.318;2023-07-24T04:37:10;7.67;;;5.80;;
1336;SDS011;662;48.814;9.318;2023-07-24T04:39:38;9.80;;;6.57;;
1336;SDS011;662;48.814;9.318;2023-07-24T04:42:04;9.30;;;5.80;;
1336;SDS011;662;48.814;9.318;2023-07-24T04:44:30;7.70;;;6.27;;
1336;SDS011;662;48.814;9.318;2023-07-24T04:46:57;8.50;;;6.07;;
1336;SDS011;662;48.814;9.318;2023-07-24T04:49:24;7.43;;;5.30;;
1336;SDS011;662;48.814;9.318;2023-07-24T04:51:50;9.17;;;6.10;;
1336;SDS011;662;48.814;9.318;2023-07-24T04:54:16;6.93;;;5.63;;
1336;SDS011;662;48.814;9.318;2023-07-24T04:56:42;8.73;;;6.00;;
1336;SDS011;662;48.814;9.318;2023-07-24T04:59:08;13.90;;;8.37;;
1336;SDS011;662;48.814;9.318;2023-07-24T05:01:33;9.47;;;7.60;;
1336;SDS011;662;48.814;9.318;2023-07-24T05:03:59;9.93;;;7.03;;
1336;SDS011;662;48.814;9.318;2023-07-24T05:06:24;8.57;;;5.83;;
1336;SDS011;662;48.814;9.318;2023-07-24T05:08:54;8.90;;;6.40;;
1336;SDS011;662;48.814;9.318;2023-07-24T05:11:20;6.30;;;5.33;;
1336;SDS011;662;48.814;9.318;2023-07-24T05:13:45;7.97;;;6.00;;
1336;SDS011;662;48.814;9.318;2023-07-24T05:16:11;7.90;;;6.27;;
1336;SDS011;662;48.814;9.318;2023-07-24T05:18:36;8.83;;;5.97;;
1336;SDS011;662;48.814;9.318;2023-07-24T05:21:02;8.10;;;5.47;;
1336;SDS011;662;48.814;9.318;2023-07-24T05:23:27;6.90;;;5.33;;
1336;SDS011;662;48.814;9.318;2023-07-24T05:26:00;9.67;;;6.70;;
1336;SDS011;662;48.814;9.318;2023-07-24T05:28:32;9.03;;;5.93;;
1336;SDS011;662;48.814;9.318;2023-07-24T05:31:02;7.80;;;6.30;;
1336;SDS011;662;48.814;9.318;2023-07-24T05:33:28;8.70;;;5.73;;
1336;SDS011;662;48.814;9.318;2023-07-24T05:36:01;7.50;;;5.73;;
1336;SDS011;662;48.814;9.318;2023-07-24T05:38:27;7.20;;;5.30;;
1336;SDS011;662;48.814;9.318;2023-07-24T05:40:54;7.57;;;5.47;;
1336;SDS011;662;48.814;9.318;2023-07-24T05:43:24;8.97;;;6.40;;
1336;SDS011;662;48.814;9.318;2023-07-24T05:45:51;9.07;;;7.00;;
1336;SDS011;662;48.814;9.318;2023-07-24T05:48:17;9.63;;;6.93;;
1336;SDS011;662;48.814;9.318;2023-07-24T05:50:43;10.03;;;6.83;;
1336;SDS011;662;48.814;9.318;2023-07-24T05:53:09;7.90;;;6.47;;
1336;SDS011;662;48.814;9.318;2023-07-24T05:55:34;9.47;;;7.20;;
1336;SDS011;662;48.814;9.318;2023-07-24T05:58:00;9.60;;;6.50;;
1336;SDS011;662;48.814;9.318;2023-07-24T06:00:26;7.20;;;5.77;;
1336;SDS011;662;48.814;9.318;2023-07-24T06:02:52;10.43;;;6.53;;
1336;SDS011;662;48.814;9.318;2023-07-24T06:05:18;10.10;;;6.73;;
1336;SDS011;662;48.814;9.318;2023-07-24T06:07:45;7.60;;;6.23;;
1336;SDS011;662;48.814;9.318;2023-07-24T06:10:11;11.23;;;6.70;;
1336;SDS011;662;48.814;9.318;2023-07-24T06:12:37;8.40;;;5.43;;
1336;SDS011;662;48.814;9.318;2023-07-24T06:15:05;9.93;;;6.90;;
1336;SDS011;662;48.814;9.318;2023-07-24T06:17:37;8.87;;;6.10;;
1336;SDS011;662;48.814;9.318;2023-07-24T06:20:07;7.10;;;5.40;;
1336;SDS011;662;48.814;9.318;2023-07-24T06:22:33;8.03;;;6.30;;
1336;SDS011;662;48.814;9.318;2023-07-24T06:24:58;8.67;;;6.10;;
1336;SDS011;662;48.814;9.318;2023-07-24T06:27:24;9.10;;;6.13;;
1336;SDS011;662;48.814;9.318;2023-07-24T06:29:49;12.73;;;6.87;;
1336;SDS011;662;48.814;9.318;2023-07-24T06:32:15;8.80;;;6.70;;
1336;SDS011;662;48.814;9.318;2023-07-24T06:34:41;11.70;;;6.20;;
1336;SDS011;662;48.814;9.318;2023-07-24T06:37:06;13.67;;;7.97;;
1336;SDS011;662;48.814;9.318;2023-07-24T06:39:32;9.20;;;6.87;;
1336;SDS011;662;48.814;9.318;2023-07-24T06:41:58;9.70;;;6.80;;
1336;SDS011;662;48.814;9.318;2023-07-24T06:44:24;9.03;;;6.77;;
1336;SDS011;662;48.814;9.318;2023-07-24T06:46:49;10.17;;;6.90;;
1336;SDS011;662;48.814;9.318;2023-07-24T06:49:15;7.37;;;6.13;;
1336;SDS011;662;48.814;9.318;2023-07-24T06:51:40;8.80;;;5.93;;
1336;SDS011;662;48.814;9.318;2023-07-24T06:54:06;11.13;;;6.33;;
1336;SDS011;662;48.814;9.318;2023-07-24T06:56:31;8.80;;;5.90;;
1336;SDS011;662;48.814;9.318;2023-07-24T06:58:57;9.63;;;6.03;;
1336;SDS011;662;48.814;9.318;2023-07-24T07:01:23;8.33;;;6.03;;
1336;SDS011;662;48.814;9.318;2023-07-24T07:03:49;8.93;;;6.80;;
1336;SDS011;662;48.814;9.318;2023-07-24T07:06:15;9.30;;;6.70;;
1336;SDS011;662;48.814;9.318;2023-07-24T07:08:40;9.10;;;6.67;;
1336;SDS011;662;48.814;9.318;2023-07-24T07:11:06;7.90;;;6.23;;
1336;SDS011;662;48.814;9.318;2023-07-24T07:13:32;9.97;;;7.00;;
1336;SDS011;662;48.814;9.318;2023-07-24T07:15:57;9.33;;;6.63;;
1336;SDS011;662;48.814;9.318;2023-07-24T07:18:23;10.13;;;6.73;;
1336;SDS011;662;48.814;9.318;2023-07-24T07:20:49;10.77;;;6.93;;
1336;SDS011;662;48.814;9.318;2023-07-24T07:23:16;10.00;;;6.80;;
1336;SDS011;662;48.814;9.318;2023-07-24T07:25:42;10.63;;;6.57;;
1336;SDS011;662;48.814;9.318;2023-07-24T07:28:10;9.93;;;6.70;;
1336;SDS011;662;48.814;9.318;2023-07-24T07:30:36;8.00;;;6.10;;
1336;SDS011;662;48.814;9.318;2023-07-24T07:33:02;8.03;;;5.77;;
1336;SDS011;662;48.814;9.318;2023-07-24T07:35:27;9.37;;;6.80;;
1336;SDS011;662;48.814;9.318;2023-07-24T07:37:53;8.60;;;6.50;;
1336;SDS011;662;48.814;9.318;2023-07-24T07:40:19;9.23;;;6.50;;
1336;SDS011;662;48.814;9.318;2023-07-24T07:42:44;7.93;;;6.00;;
1336;SDS011;662;48.814;9.318;2023-07-24T07:45:10;10.27;;;6.87;;
1336;SDS011;662;48.814;9.318;2023-07-24T07:47:36;9.37;;;7.43;;
1336;SDS011;662;48.814;9.318;2023-07-24T07:50:02;9.47;;;6.67;;
1336;SDS011;662;48.814;9.318;2023-07-24T07:52:28;10.33;;;6.03;;
1336;SDS011;662;48.814;9.318;2023-07-24T07:54:53;8.10;;;6.33;;
1336;SDS011;662;48.814;9.318;2023-07-24T07:57:19;9.27;;;6.40;;
1336;SDS011;662;48.814;9.318;2023-07-24T07:59:44;9.57;;;7.00;;
1336;SDS011;662;48.814;9.318;2023-07-24T08:02:10;9.93;;;7.17;;
1336;SDS011;662;48.814;9.318;2023-07-24T08:04:36;7.80;;;6.17;;
1336;SDS011;662;48.814;9.318;2023-07-24T08:07:01;8.13;;;5.77;;
1336;SDS011;662;48.814;9.318;2023-07-24T08:09:27;8.33;;;6.13;;
1336;SDS011;662;48.814;9.318;2023-07-24T08:11:53;8.97;;;6.73;;
1336;SDS011;662;48.814;9.318;2023-07-24T08:14:19;11.77;;;6.83;;
1336;SDS011;662;48.814;9.318;2023-07-24T08:16:44;8.60;;;6.43;;
1336;SDS011;662;48.814;9.318;2023-07-24T08:19:13;7.47;;;6.43;;
1336;SDS011;662;48.814;9.318;2023-07-24T08:21:39;7.33;;;5.97;;
1336;SDS011;662;48.814;9.318;2023-07-24T08:24:05;7.83;;;6.37;;
1336;SDS011;662;48.814;9.318;2023-07-24T08:26:31;9.40;;;6.67;;
1336;SDS011;662;48.814;9.318;2023-07-24T08:28:57;10.00;;;7.20;;
1336;SDS011;662;48.814;9.318;2023-07-24T08:31:22;8.20;;;6.47;;
1336;SDS011;662;48.814;9.318;2023-07-24T08:33:48;11.03;;;6.90;;
1336;SDS011;662;48.814;9.318;2023-07-24T08:36:13;9.50;;;6.13;;
1336;SDS011;662;48.814;9.318;2023-07-24T08:38:39;8.90;;;6.80;;
1336;SDS011;662;48.814;9.318;2023-07-24T08:41:06;10.43;;;7.77;;
1336;SDS011;662;48.814;9.318;2023-07-24T08:43:33;9.63;;;7.33;;
1336;SDS011;662;48.814;9.318;2023-07-24T08:46:00;10.17;;;6.73;;
1336;SDS011;662;48.814;9.318;2023-07-24T08:48:29;10.20;;;6.00;;
1336;SDS011;662;48.814;9.318;2023-07-24T08:50:56;9.63;;;7.13;;
1336;SDS011;662;48.814;9.318;2023-07-24T08:53:24;9.10;;;7.37;;
1336;SDS011;662;48.814;9.318;2023-07-24T08:55:50;8.00;;;7.13;;
1336;SDS011;662;48.814;9.318;2023-07-24T08:58:17;8.90;;;7.10;;
1336;SDS011;662;48.814;9.318;2023-07-24T09:00:43;10.83;;;6.90;;
1336;SDS011;662;48.814;9.318;2023-07-24T09:03:08;8.00;;;6.77;;
1336;SDS011;662;48.814;9.318;2023-07-24T09:05:34;7.33;;;5.80;;
1336;SDS011;662;48.814;9.318;2023-07-24T09:08:00;8.33;;;6.43;;
1336;SDS011;662;48.814;9.318;2023-07-24T09:10:26;9.37;;;7.13;;
1336;SDS011;662;48.814;9.318;2023-07-24T09:12:52;9.63;;;7.37;;
1336;SDS011;662;48.814;9.318;2023-07-24T09:15:17;7.93;;;6.30;;
1336;SDS011;662;48.814;9.318;2023-07-24T09:17:50;9.37;;;7.23;;
1336;SDS011;662;48.814;9.318;2023-07-24T09:20:17;8.10;;;6.47;;
1336;SDS011;662;48.814;9.318;2023-07-24T09:22:53;10.60;;;6.77;;
1336;SDS011;662;48.814;9.318;2023-07-24T09:25:31;8.13;;;6.47;;
1336;SDS011;662;48.814;9.318;2023-07-24T09:27:58;7.63;;;6.07;;
1336;SDS011;662;48.814;9.318;2023-07-24T09:30:24;8.60;;;5.70;;
1336;SDS011;662;48.814;9.318;2023-07-24T09:32:53;9.03;;;6.33;;
1336;SDS011;662;48.814;9.318;2023-07-24T09:35:19;6.47;;;5.40;;
1336;SDS011;662;48.814;9.318;2023-07-24T09:37:45;6.33;;;5.40;;
1336;SDS011;662;48.814;9.318;2023-07-24T09:40:12;7.13;;;5.80;;
1336;SDS011;662;48.814;9.318;2023-07-24T09:42:47;8.97;;;5.27;;
1336;SDS011;662;48.814;9.318;2023-07-24T09:45:13;6.60;;;4.57;;
1336;SDS011;662;48.814;9.318;2023-07-24T09:47:39;6.77;;;5.13;;
1336;SDS011;662;48.814;9.318;2023-07-24T09:50:05;5.60;;;4.97;;
1336;SDS011;662;48.814;9.318;2023-07-24T09:52:31;5.60;;;4.90;;
1336;SDS011;662;48.814;9.318;2023-07-24T09:57:30;6.60;;;5.67;;
1336;SDS011;662;48.814;9.318;2023-07-24T09:59:57;5.60;;;4.47;;
1336;SDS011;662;48.814;9.318;2023-07-24T10:02:24;7.40;;;5.20;;
1336;SDS011;662;48.814;9.318;2023-07-24T10:04:50;7.00;;;4.93;;
1336;SDS011;662;48.814;9.318;2023-07-24T10:07:16;6.70;;;5.40;;
1336;SDS011;662;48.814;9.318;2023-07-24T10:09:46;8.13;;;6.10;;
1336;SDS011;662;48.814;9.318;2023-07-24T10:12:13;9.07;;;5.53;;
1336;SDS011;662;48.814;9.318;2023-07-24T10:14:40;5.53;;;4.90;;
1336;SDS011;662;48.814;9.318;2023-07-24T10:17:06;6.90;;;5.10;;
1336;SDS011;662;48.814;9.318;2023-07-24T10:19:35;8.17;;;4.77;;
1336;SDS011;662;48.814;9.318;2023-07-24T10:22:03;6.60;;;5.30;;
1336;SDS011;662;48.814;9.318;2023-07-24T10:24:29;6.77;;;5.67;;
1336;SDS011;662;48.814;9.318;2023-07-24T10:26:56;6.20;;;5.50;;
1336;SDS011;662;48.814;9.318;2023-07-24T10:29:23;7.20;;;4.80;;
1336;SDS011;662;48.814;9.318;2023-07-24T10:31:54;5.90;;;5.30;;
1336;SDS011;662;48.814;9.318;2023-07-24T10:34:20;7.50;;;5.33;;
1336;SDS011;662;48.814;9.318;2023-07-24T10:36:45;6.77;;;5.47;;
1336;SDS011;662;48.814;9.318;2023-07-24T10:39:15;7.73;;;5.20;;
1336;SDS011;662;48.814;9.318;2023-07-24T10:41:43;10.20;;;5.60;;
1336;SDS011;662;48.814;9.318;2023-07-24T10:44:10;7.50;;;5.93;;
1336;SDS011;662;48.814;9.318;2023-07-24T10:46:37;6.70;;;5.50;;
1336;SDS011;662;48.814;9.318;2023-07-24T10:49:07;8.90;;;6.20;;
1336;SDS011;662;48.814;9.318;2023-07-24T10:51:33;6.90;;;4.77;;
1336;SDS011;662;48.814;9.318;2023-07-24T10:54:02;7.53;;;5.30;;
1336;SDS011;662;48.814;9.318;2023-07-24T10:56:29;5.80;;;5.10;;
1336;SDS011;662;48.814;9.318;2023-07-24T10:58:54;7.90;;;5.60;;
1336;SDS011;662;48.814;9.318;2023-07-24T11:01:20;7.47;;;6.00;;
1336;SDS011;662;48.814;9.318;2023-07-24T11:03:46;7.70;;;5.20;;
1336;SDS011;662;48.814;9.318;2023-07-24T11:06:13;6.93;;;5.57;;
1336;SDS011;662;48.814;9.318;2023-07-24T11:08:53;8.10;;;6.47;;
1336;SDS011;662;48.814;9.318;2023-07-24T11:11:29;7.60;;;5.93;;
1336;SDS011;662;48.814;9.318;2023-07-24T11:14:00;6.57;;;5.00;;
1336;SDS011;662;48.814;9.318;2023-07-24T11:16:29;6.83;;;5.40;;
1336;SDS011;662;48.814;9.318;2023-07-24T11:18:58;6.00;;;5.37;;
1336;SDS011;662;48.814;9.318;2023-07-24T11:21:24;8.07;;;5.90;;
1336;SDS011;662;48.814;9.318;2023-07-24T11:23:50;8.80;;;5.63;;
1336;SDS011;662;48.814;9.318;2023-07-24T11:26:21;6.73;;;5.10;;
1336;SDS011;662;48.814;9.318;2023-07-24T11:28:48;6.27;;;5.03;;
1336;SDS011;662;48.814;9.318;2023-07-24T11:31:14;7.27;;;5.67;;
1336;SDS011;662;48.814;9.318;2023-07-24T11:33:40;7.33;;;5.67;;
1336;SDS011;662;48.814;9.318;2023-07-24T11:36:07;6.43;;;5.77;;
1336;SDS011;662;48.814;9.318;2023-07-24T11:38:34;5.97;;;5.07;;
1336;SDS011;662;48.814;9.318;2023-07-24T11:41:00;5.70;;;5.03;;
1336;SDS011;662;48.814;9.318;2023-07-24T11:43:26;8.67;;;6.57;;
1336;SDS011;662;48.814;9.318;2023-07-24T11:45:52;7.90;;;6.40;;
1336;SDS011;662;48.814;9.318;2023-07-24T11:48:19;6.97;;;5.27;;
1336;SDS011;662;48.814;9.318;2023-07-24T11:50:46;6.60;;;5.50;;
1336;SDS011;662;48.814;9.318;2023-07-24T11:53:19;7.47;;;5.70;;
1336;SDS011;662;48.814;9.318;2023-07-24T11:55:48;6.53;;;5.47;;
1336;SDS011;662;48.814;9.318;2023-07-24T11:58:15;6.47;;;5.40;;
1336;SDS011;662;48.814;9.318;2023-07-24T12:00:41;6.50;;;5.20;;
1336;SDS011;662;48.814;9.318;2023-07-24T12:03:07;7.90;;;5.10;;
1336;SDS011;662;48.814;9.318;2023-07-24T12:05:42;5.83;;;5.23;;
1336;SDS011;662;48.814;9.318;2023-07-24T12:08:09;6.50;;;5.80;;
1336;SDS011;662;48.814;9.318;2023-07-24T12:10:36;6.23;;;5.10;;
1336;SDS011;662;48.814;9.318;2023-07-24T12:13:03;6.57;;;4.83;;
1336;SDS011;662;48.814;9.318;2023-07-24T12:15:29;8.40;;;5.23;;
1336;SDS011;662;48.814;9.318;2023-07-24T12:17:55;7.10;;;5.53;;
1336;SDS011;662;48.814;9.318;2023-07-24T12:20:22;6.77;;;5.27;;
1336;SDS011;662;48.814;9.318;2023-07-24T12:22:48;7.63;;;5.60;;
1336;SDS011;662;48.814;9.318;2023-07-24T12:25:14;8.40;;;5.90;;
1336;SDS011;662;48.814;9.318;2023-07-24T12:27:40;6.47;;;4.83;;
1336;SDS011;662;48.814;9.318;2023-07-24T12:30:07;7.93;;;5.67;;
1336;SDS011;662;48.814;9.318;2023-07-24T12:32:33;6.93;;;5.30;;
1336;SDS011;662;48.814;9.318;2023-07-24T12:34:59;8.90;;;6.47;;
1336;SDS011;662;48.814;9.318;2023-07-24T12:37:25;7.80;;;5.77;;
1336;SDS011;662;48.814;9.318;2023-07-24T12:39:50;6.07;;;5.27;;
1336;SDS011;662;48.814;9.318;2023-07-24T12:42:16;7.07;;;5.30;;
1336;SDS011;662;48.814;9.318;2023-07-24T12:44:42;7.97;;;5.03;;
1336;SDS011;662;48.814;9.318;2023-07-24T12:47:09;5.70;;;5.10;;
1336;SDS011;662;48.814;9.318;2023-07-24T12:49:35;5.93;;;5.23;;
1336;SDS011;662;48.814;9.318;2023-07-24T12:52:01;6.33;;;5.00;;
1336;SDS011;662;48.814;9.318;2023-07-24T12:54:27;6.03;;;4.90;;
1336;SDS011;662;48.814;9.318;2023-07-24T12:56:53;5.90;;;4.50;;
1336;SDS011;662;48.814;9.318;2023-07-24T12:59:19;6.00;;;5.00;;
1336;SDS011;662;48.814;9.318;2023-07-24T13:01:44;6.47;;;5.10;;
1336;SDS011;662;48.814;9.318;2023-07-24T13:04:10;5.30;;;4.70;;
1336;SDS011;662;48.814;9.318;2023-07-24T13:06:36;5.80;;;5.20;;
1336;SDS011;662;48.814;9.318;2023-07-24T13:09:03;8.37;;;5.47;;
1336;SDS011;662;48.814;9.318;2023-07-24T13:11:29;7.87;;;5.60;;
1336;SDS011;662;48.814;9.318;2023-07-24T13:13:55;6.23;;;5.10;;
1336;SDS011;662;48.814;9.318;2023-07-24T13:16:21;10.50;;;5.50;;
1336;SDS011;662;48.814;9.318;2023-07-24T13:18:47;6.53;;;5.40;;
1336;SDS011;662;48.814;9.318;2023-07-24T13:21:12;5.70;;;4.93;;
1336;SDS011;662;48.814;9.318;2023-07-24T13:23:39;5.77;;;4.70;;
1336;SDS011;662;48.814;9.318;2023-07-24T13:26:05;6.67;;;4.57;;
1336;SDS011;662;48.814;9.318;2023-07-24T13:28:32;5.43;;;4.80;;
1336;SDS011;662;48.814;9.318;2023-07-24T13:30:58;6.63;;;5.17;;
1336;SDS011;662;48.814;9.318;2023-07-24T13:33:24;6.17;;;4.87;;
1336;SDS011;662;48.814;9.318;2023-07-24T13:35:49;5.77;;;4.30;;
1336;SDS011;662;48.814;9.318;2023-07-24T13:38:18;6.97;;;5.17;;
1336;SDS011;662;48.814;9.318;2023-07-24T13:40:44;5.90;;;4.80;;
1336;SDS011;662;48.814;9.318;2023-07-24T13:43:10;5.90;;;4.60;;
1336;SDS011;662;48.814;9.318;2023-07-24T13:45:35;6.00;;;4.80;;
1336;SDS011;662;48.814;9.318;2023-07-24T13:48:01;5.00;;;4.27;;
1336;SDS011;662;48.814;9.318;2023-07-24T13:50:27;5.40;;;4.80;;
1336;SDS011;662;48.814;9.318;2023-07-24T13:52:53;4.73;;;4.00;;
1336;SDS011;662;48.814;9.318;2023-07-24T13:55:18;6.13;;;4.90;;
1336;SDS011;662;48.814;9.318;2023-07-24T13:57:44;6.40;;;4.70;;
1336;SDS011;662;48.814;9.318;2023-07-24T14:00:10;6.03;;;4.40;;
1336;SDS011;662;48.814;9.318;2023-07-24T14:02:35;6.33;;;4.30;;
1336;SDS011;662;48.814;9.318;2023-07-24T14:05:01;5.50;;;4.00;;
1336;SDS011;662;48.814;9.318;2023-07-24T14:07:27;4.57;;;3.57;;
1336;SDS011;662;48.814;9.318;2023-07-24T14:09:52;5.07;;;4.00;;
1336;SDS011;662;48.814;9.318;2023-07-24T14:12:18;5.93;;;4.50;;
1336;SDS011;662;48.814;9.318;2023-07-24T14:14:43;5.43;;;4.23;;
1336;SDS011;662;48.814;9.318;2023-07-24T14:17:09;3.93;;;3.53;;
1336;SDS011;662;48.814;9.318;2023-07-24T14:19:35;4.00;;;3.63;;
1336;SDS011;662;48.814;9.318;2023-07-24T14:22:00;6.30;;;4.03;;
1336;SDS011;662;48.814;9.318;2023-07-24T14:24:26;5.07;;;4.30;;
1336;SDS011;662;48.814;9.318;2023-07-24T14:26:52;5.23;;;4.10;;
1336;SDS011;662;48.814;9.318;2023-07-24T14:29:18;5.13;;;3.53;;
1336;SDS011;662;48.814;9.318;2023-07-24T14:31:44;4.33;;;3.67;;
1336;SDS011;662;48.814;9.318;2023-07-24T14:34:10;4.83;;;4.23;;
1336;SDS011;662;48.814;9.318;2023-07-24T14:36:37;5.77;;;3.90;;
1336;SDS011;662;48.814;9.318;2023-07-24T14:39:03;6.00;;;3.90;;
1336;SDS011;662;48.814;9.318;2023-07-24T14:41:29;4.63;;;3.90;;
1336;SDS011;662;48.814;9.318;2023-07-24T14:43:55;4.03;;;3.60;;
1336;SDS011;662;48.814;9.318;2023-07-24T14:46:21;4.83;;;3.00;;
1336;SDS011;662;48.814;9.318;2023-07-24T14:48:46;6.00;;;4.17;;
1336;SDS011;662;48.814;9.318;2023-07-24T14:51:12;5.10;;;3.60;;
1336;SDS011;662;48.814;9.318;2023-07-24T14:53:37;4.07;;;3.33;;
1336;SDS011;662;48.814;9.318;2023-07-24T14:56:03;5.00;;;3.47;;
1336;SDS011;662;48.814;9.318;2023-07-24T14:58:29;3.43;;;3.13;;
1336;SDS011;662;48.814;9.318;2023-07-24T15:00:55;4.17;;;3.37;;
1336;SDS011;662;48.814;9.318;2023-07-24T15:03:21;4.47;;;3.40;;
1336;SDS011;662;48.814;9.318;2023-07-24T15:05:47;3.97;;;3.57;;
1336;SDS011;662;48.814;9.318;2023-07-24T15:08:13;3.50;;;2.90;;
1336;SDS011;662;48.814;9.318;2023-07-24T15:10:39;4.40;;;3.40;;
1336;SDS011;662;48.814;9.318;2023-07-24T15:13:08;3.27;;;2.87;;
1336;SDS011;662;48.814;9.318;2023-07-24T15:15:35;3.53;;;3.23;;
1336;SDS011;662;48.814;9.318;2023-07-24T15:18:00;3.20;;;2.60;;
1336;SDS011;662;48.814;9.318;2023-07-24T15:20:26;4.63;;;3.20;;
1336;SDS011;662;48.814;9.318;2023-07-24T15:22:51;3.27;;;2.97;;
1336;SDS011;662;48.814;9.318;2023-07-24T15:25:18;4.27;;;3.70;;
1336;SDS011;662;48.814;9.318;2023-07-24T15:27:44;5.40;;;3.80;;
1336;SDS011;662;48.814;9.318;2023-07-24T15:30:10;4.00;;;3.00;;
1336;SDS011;662;48.814;9.318;2023-07-24T15:32:36;3.67;;;3.27;;